Time;durP1;ratioP1;P1;durP2;ratioP2;P2;SDS_P1;SDS_P2;PMS_P1;PMS_P2;Temp;Humidity;BMP_temperature;BMP_pressure;BME280_temperature;BME280_humidity;BME280_pressure;Samples;Min_cycle;Max_cycle;Signal;HPM_P1;HPM_P2
2022/11/06 00:00:08;;;;;;;11.23;3.33;;;;;;;6.18;100.00;101338.13;5013851;28;20577;-77
2022/11/06 00:02:34;;;;;;;7.03;3.07;;;;;;;6.21;100.00;101339.50;5012967;28;21005;-78
2022/11/06 00:07:45;;;;;;;9.77;3.40;;;;;;;6.20;100.00;101343.28;4993498;28;20788;-77
2022/11/06 00:10:13;;;;;;;7.03;2.83;;;;;;;6.12;100.00;101341.03;5009446;28;20841;-77
2022/11/06 00:12:40;;;;;;;8.47;2.90;;;;;;;6.13;100.00;101340.75;5013517;28;20474;-78
2022/11/06 00:15:07;;;;;;;7.83;2.90;;;;;;;6.18;100.00;101340.00;5008146;28;20468;-77
2022/11/06 00:17:34;;;;;;;6.80;2.77;;;;;;;6.20;100.00;101337.88;5013335;28;20432;-80
2022/11/06 00:20:00;;;;;;;10.83;3.93;;;;;;;6.23;100.00;101337.34;5030652;28;20489;-77
2022/11/06 00:22:27;;;;;;;5.70;2.33;;;;;;;6.26;100.00;101326.91;5038279;28;20538;-78
2022/11/06 00:24:53;;;;;;;8.17;3.13;;;;;;;6.31;100.00;101331.53;5023514;28;20463;-81
2022/11/06 00:27:21;;;;;;;14.43;3.60;;;;;;;6.34;100.00;101336.41;5022949;28;20440;-77
2022/11/06 00:29:48;;;;;;;6.67;2.70;;;;;;;6.40;100.00;101330.00;5020602;28;20826;-78
2022/11/06 00:32:14;;;;;;;6.23;2.60;;;;;;;6.39;100.00;101320.31;5017960;28;20510;-77
2022/11/06 00:34:41;;;;;;;7.77;3.13;;;;;;;6.45;100.00;101335.44;5019235;28;20963;-77
2022/11/06 00:37:07;;;;;;;9.43;3.73;;;;;;;6.43;100.00;101332.19;5016803;28;20835;-77
2022/11/06 00:39:34;;;;;;;6.27;2.67;;;;;;;6.49;100.00;101333.84;5019873;28;20487;-77
2022/11/06 00:42:00;;;;;;;8.87;3.30;;;;;;;6.55;100.00;101334.72;5015834;28;20978;-76
2022/11/06 00:44:28;;;;;;;9.13;3.83;;;;;;;6.55;100.00;101343.63;5018144;28;20796;-77
2022/11/06 00:46:54;;;;;;;10.17;3.73;;;;;;;6.56;100.00;101339.03;5018186;28;20444;-77
2022/11/06 00:49:21;;;;;;;6.00;2.97;;;;;;;6.59;100.00;101338.50;5018800;28;20474;-77
2022/11/06 00:51:48;;;;;;;7.20;2.60;;;;;;;6.57;100.00;101337.97;5018699;28;20503;-76
2022/11/06 00:54:14;;;;;;;8.50;2.70;;;;;;;6.54;100.00;101335.78;5016625;28;20463;-78
2022/11/06 00:56:41;;;;;;;10.43;3.30;;;;;;;6.53;100.00;101336.84;5018242;28;20452;-77
2022/11/06 00:59:11;;;;;;;8.50;2.80;;;;;;;6.54;100.00;101341.16;5017322;28;20444;-77
2022/11/06 01:01:41;;;;;;;16.73;3.20;;;;;;;6.48;100.00;101336.81;5017041;28;20491;-76
2022/11/06 01:04:11;;;;;;;9.23;2.93;;;;;;;6.51;100.00;101339.81;5018353;28;20546;-77
2022/11/06 01:06:45;;;;;;;9.53;3.07;;;;;;;6.47;100.00;101333.31;5015718;28;20463;-76
2022/11/06 01:09:14;;;;;;;9.20;3.90;;;;;;;6.45;100.00;101337.31;5016926;28;20428;-77
2022/11/06 01:11:43;;;;;;;8.73;3.30;;;;;;;6.40;100.00;101334.56;5016493;28;20483;-77
2022/11/06 01:14:12;;;;;;;10.87;3.23;;;;;;;6.38;100.00;101332.16;5018023;28;20950;-77
2022/11/06 01:16:40;;;;;;;7.30;3.03;;;;;;;6.43;100.00;101323.31;5017638;28;20440;-77
2022/11/06 01:19:07;;;;;;;7.63;3.50;;;;;;;6.40;100.00;101319.25;5016108;28;20468;-76
2022/11/06 01:21:37;;;;;;;6.03;2.67;;;;;;;6.48;100.00;101317.97;5016328;28;20484;-76
2022/11/06 01:24:06;;;;;;;11.30;3.77;;;;;;;6.45;100.00;101318.47;5015192;28;20466;-77
2022/11/06 01:26:33;;;;;;;10.10;3.47;;;;;;;6.43;100.00;101318.75;5018399;28;20468;-77
2022/11/06 01:29:00;;;;;;;10.77;3.27;;;;;;;6.41;100.00;101318.16;5016244;28;21026;-77
2022/11/06 01:31:28;;;;;;;8.67;3.67;;;;;;;6.46;100.00;101312.00;5015198;28;20490;-78
2022/11/06 01:33:57;;;;;;;9.37;3.27;;;;;;;6.40;100.00;101307.66;5016844;28;20448;-77
2022/11/06 01:36:25;;;;;;;9.30;2.50;;;;;;;6.46;100.00;101302.09;5017716;28;20460;-77
2022/11/06 01:38:58;;;;;;;7.50;3.17;;;;;;;6.47;100.00;101300.22;5015961;28;20455;-77
2022/11/06 01:41:26;;;;;;;12.13;3.00;;;;;;;6.50;100.00;101294.28;5017983;28;20495;-77
2022/11/06 01:43:55;;;;;;;7.50;2.97;;;;;;;6.47;100.00;101289.44;5015507;28;20479;-77
2022/11/06 01:46:24;;;;;;;9.67;3.30;;;;;;;6.48;100.00;101288.38;5017143;28;20532;-76
2022/11/06 01:48:53;;;;;;;7.30;3.27;;;;;;;6.45;100.00;101287.00;5015612;28;20951;-77
2022/11/06 01:51:24;;;;;;;6.90;3.60;;;;;;;6.39;100.00;101279.94;5014953;28;20486;-76
2022/11/06 01:53:51;;;;;;;8.87;3.13;;;;;;;6.44;100.00;101280.00;5016711;28;20963;-77
2022/11/06 01:56:19;;;;;;;8.70;3.47;;;;;;;6.46;100.00;101280.56;5017843;28;20455;-76
2022/11/06 01:58:49;;;;;;;9.50;3.70;;;;;;;6.43;100.00;101274.88;5016381;28;20443;-77
2022/11/06 02:01:15;;;;;;;9.10;3.57;;;;;;;6.48;100.00;101273.03;5015071;28;20495;-76
2022/11/06 02:03:48;;;;;;;9.03;3.77;;;;;;;6.55;100.00;101279.03;5015670;28;20465;-76
2022/11/06 02:06:15;;;;;;;7.40;3.00;;;;;;;6.59;100.00;101279.28;5017445;28;20478;-76
2022/11/06 02:08:43;;;;;;;6.83;3.43;;;;;;;6.60;100.00;101275.56;5016836;28;20428;-77
2022/11/06 02:11:09;;;;;;;9.80;2.90;;;;;;;6.69;100.00;101276.72;5016518;28;20479;-77
2022/11/06 02:13:45;;;;;;;7.30;3.40;;;;;;;6.70;100.00;101270.25;5016778;28;20448;-77
2022/11/06 02:16:18;;;;;;;8.43;3.50;;;;;;;6.77;100.00;101268.16;5029286;23;20512;-68
2022/11/06 02:19:08;;;;;;;7.70;3.50;;;;;;;6.79;100.00;101259.81;4998790;28;20449;-68
2022/11/06 02:21:54;;;;;;;9.83;3.30;;;;;;;6.81;100.00;101261.16;5008691;28;20476;-68
2022/11/06 02:24:39;;;;;;;10.33;3.30;;;;;;;6.79;100.00;101262.50;5014951;28;20446;-69
2022/11/06 02:27:14;;;;;;;7.90;3.07;;;;;;;6.80;100.00;101259.53;5011943;28;20599;-70
2022/11/06 02:29:47;;;;;;;8.03;3.80;;;;;;;6.80;100.00;101262.22;4994946;28;20940;-70
2022/11/06 02:32:19;;;;;;;8.60;3.37;;;;;;;6.79;100.00;101259.81;4995251;28;20425;-69
2022/11/06 02:34:47;;;;;;;11.00;3.70;;;;;;;6.81;100.00;101266.53;4995072;28;20460;-69
2022/11/06 02:37:17;;;;;;;15.33;3.93;;;;;;;6.86;100.00;101264.97;4994999;28;20864;-69
2022/11/06 02:39:48;;;;;;;8.20;3.23;;;;;;;6.83;100.00;101264.41;5010694;28;20498;-68
2022/11/06 02:42:20;;;;;;;11.23;4.33;;;;;;;6.83;100.00;101269.81;5014615;28;20439;-70
2022/11/06 02:44:49;;;;;;;9.17;3.70;;;;;;;6.79;100.00;101265.19;4994069;28;20975;-68
2022/11/06 02:47:19;;;;;;;13.07;4.30;;;;;;;6.78;100.00;101264.38;4999911;28;20487;-69
2022/11/06 02:49:49;;;;;;;9.40;3.60;;;;;;;6.75;100.00;101259.50;5001029;28;20983;-69
2022/11/06 02:52:21;;;;;;;10.87;3.83;;;;;;;6.74;100.00;101260.59;5000334;28;20951;-70
2022/11/06 02:54:56;;;;;;;10.00;3.60;;;;;;;6.72;100.00;101254.63;5013694;28;20428;-70
2022/11/06 02:57:27;;;;;;;13.17;3.83;;;;;;;6.70;100.00;101256.78;4994290;28;20979;-68
2022/11/06 03:00:01;;;;;;;9.00;3.53;;;;;;;6.73;100.00;101256.28;4993979;28;20448;-70
2022/11/06 03:02:32;;;;;;;7.13;3.20;;;;;;;6.68;100.00;101247.34;5010972;28;20498;-68
2022/11/06 03:05:04;;;;;;;7.80;3.10;;;;;;;6.66;100.00;101246.78;5011798;28;20428;-70
2022/11/06 03:07:37;;;;;;;8.13;2.97;;;;;;;6.72;100.00;101254.63;4996293;28;20523;-68
2022/11/06 03:10:06;;;;;;;7.70;3.57;;;;;;;6.73;100.00;101241.97;5003218;28;20456;-69
2022/11/06 03:12:41;;;;;;;9.43;3.87;;;;;;;6.68;100.00;101256.22;5014052;28;20448;-70
2022/11/06 03:15:19;;;;;;;9.50;3.73;;;;;;;6.65;100.00;101250.56;5012492;28;20466;-70
2022/11/06 03:17:52;;;;;;;7.90;3.33;;;;;;;6.60;100.00;101248.66;4997636;28;20488;-69
2022/11/06 03:20:25;;;;;;;11.00;3.97;;;;;;;6.54;100.00;101249.66;4996943;28;20477;-69
2022/11/06 03:22:57;;;;;;;8.63;3.30;;;;;;;6.42;100.00;101254.41;4994393;28;20439;-69
2022/11/06 03:25:27;;;;;;;9.50;3.97;;;;;;;6.41;100.00;101250.91;5005928;28;20833;-70
2022/11/06 03:28:01;;;;;;;10.07;4.63;;;;;;;6.31;100.00;101250.81;5010628;28;20476;-70
2022/11/06 03:30:28;;;;;;;8.70;3.70;;;;;;;6.30;100.00;101241.94;5013798;28;20424;-71
2022/11/06 03:33:02;;;;;;;9.30;4.03;;;;;;;6.23;100.00;101241.31;5011781;28;20986;-69
2022/11/06 03:35:35;;;;;;;13.33;3.77;;;;;;;6.17;100.00;101245.06;5013420;28;20431;-69
2022/11/06 03:38:08;;;;;;;16.53;3.73;;;;;;;6.11;100.00;101246.09;5009279;28;20495;-69
2022/11/06 03:40:43;;;;;;;8.00;3.77;;;;;;;6.02;100.00;101244.88;5012020;28;20463;-70
2022/11/06 03:43:15;;;;;;;8.47;3.80;;;;;;;5.97;100.00;101239.47;5013684;28;20435;-69
2022/11/06 03:45:44;;;;;;;7.40;3.80;;;;;;;6.00;100.00;101244.34;5011271;28;20468;-69
2022/11/06 03:48:15;;;;;;;7.33;3.10;;;;;;;6.02;100.00;101236.81;4996798;28;20508;-69
2022/11/06 03:50:47;;;;;;;9.87;4.70;;;;;;;6.06;100.00;101240.63;4994626;28;20461;-69
2022/11/06 03:53:20;;;;;;;12.43;4.23;;;;;;;6.05;100.00;101239.00;4994946;28;20441;-68
2022/11/06 03:55:52;;;;;;;9.97;3.63;;;;;;;6.03;100.00;101241.97;4995365;28;20473;-68
2022/11/06 03:58:23;;;;;;;12.53;5.20;;;;;;;6.05;100.00;101236.31;4995877;28;20483;-70
2022/11/06 04:00:51;;;;;;;10.10;4.03;;;;;;;5.99;100.00;101232.78;5013214;28;20483;-70
2022/11/06 04:03:23;;;;;;;10.20;4.60;;;;;;;5.97;100.00;101244.84;5009373;28;20951;-68
2022/11/06 04:05:56;;;;;;;21.03;5.10;;;;;;;6.01;100.00;101248.66;5013447;28;20432;-68
2022/11/06 04:14:04;;;;;;;9.40;4.40;;;;;;;5.98;100.00;101236.53;5004287;28;20483;-69
2022/11/06 04:16:34;;;;;;;9.33;3.97;;;;;;;6.03;100.00;101238.47;5001163;28;20543;-69
2022/11/06 04:19:01;;;;;;;13.23;4.13;;;;;;;5.95;100.00;101230.84;5011012;28;20523;-74
2022/11/06 04:21:53;;;;;;;9.03;4.30;;;;;;;5.96;100.00;101232.47;4994015;28;20485;-72
2022/11/06 04:27:26;;;;;;;12.13;4.30;;;;;;;5.79;100.00;101229.84;5009419;28;20471;-68
2022/11/06 04:30:05;;;;;;;11.20;4.17;;;;;;;5.80;100.00;101224.25;5010604;28;20487;-69
2022/11/06 04:32:38;;;;;;;10.10;4.00;;;;;;;5.72;100.00;101227.38;4993503;28;20479;-69
2022/11/06 04:35:10;;;;;;;19.17;4.43;;;;;;;5.67;100.00;101215.75;4997144;28;20464;-70
2022/11/06 04:37:45;;;;;;;9.73;4.33;;;;;;;5.67;100.00;101213.06;5013161;28;20468;-68
2022/11/06 04:40:17;;;;;;;10.13;4.00;;;;;;;5.70;100.00;101217.94;5011416;28;20456;-68
2022/11/06 04:42:50;;;;;;;9.80;4.37;;;;;;;5.74;100.00;101216.38;5012677;28;20486;-68
2022/11/06 04:45:24;;;;;;;13.87;4.50;;;;;;;5.76;100.00;101217.75;5004159;28;20453;-67
2022/11/06 04:47:53;;;;;;;11.70;4.03;;;;;;;5.78;100.00;101215.59;4993137;28;20579;-69
2022/11/06 04:50:22;;;;;;;10.40;3.87;;;;;;;5.72;100.00;101208.56;5001660;28;20467;-69
2022/11/06 04:52:50;;;;;;;9.30;4.30;;;;;;;5.66;100.00;101204.19;5012864;28;20443;-69
2022/11/06 04:55:18;;;;;;;12.00;5.50;;;;;;;5.68;100.00;101209.31;5005070;28;20469;-68
2022/11/06 04:57:44;;;;;;;9.73;3.77;;;;;;;5.69;100.00;101211.75;4993167;28;20491;-68
2022/11/06 05:00:13;;;;;;;12.23;4.70;;;;;;;5.75;100.00;101213.41;5000464;28;20510;-68
2022/11/06 05:02:41;;;;;;;9.93;4.37;;;;;;;5.72;100.00;101205.06;5012979;28;20479;-69
2022/11/06 05:05:08;;;;;;;9.50;3.80;;;;;;;5.76;100.00;101206.19;5010402;28;20470;-70
2022/11/06 05:07:35;;;;;;;9.57;4.40;;;;;;;5.72;100.00;101208.56;5012691;28;20466;-69
2022/11/06 05:10:02;;;;;;;11.00;4.10;;;;;;;5.73;100.00;101210.19;5012086;28;20470;-69
2022/11/06 05:12:28;;;;;;;11.70;3.97;;;;;;;5.78;100.00;101207.53;5016559;28;20455;-69
2022/11/06 05:14:54;;;;;;;8.53;3.03;;;;;;;5.76;100.00;101211.56;5009284;28;20868;-69
2022/11/06 05:17:21;;;;;;;9.30;4.10;;;;;;;5.80;100.00;101202.72;4996006;28;20881;-69
2022/11/06 05:19:49;;;;;;;10.57;3.47;;;;;;;5.73;100.00;101206.69;5005463;28;20963;-69
2022/11/06 05:24:59;;;;;;;10.67;4.10;;;;;;;5.63;100.00;101202.00;5012538;28;20450;-70
2022/11/06 05:27:25;;;;;;;9.20;3.40;;;;;;;5.66;100.00;101204.19;5013244;28;20836;-69
2022/11/06 05:29:52;;;;;;;9.20;3.90;;;;;;;5.64;100.00;101210.88;5006483;28;20460;-68
2022/11/06 05:32:18;;;;;;;7.73;3.40;;;;;;;5.59;100.00;101205.47;5004614;28;20455;-69
2022/11/06 05:34:45;;;;;;;9.13;3.80;;;;;;;5.55;100.00;101205.97;5015807;28;20474;-68
2022/11/06 05:37:13;;;;;;;8.80;4.10;;;;;;;5.51;100.00;101202.16;5013164;28;20488;-68
2022/11/06 05:39:39;;;;;;;14.03;4.90;;;;;;;5.55;100.00;101199.78;5015743;28;20471;-67
2022/11/06 05:42:06;;;;;;;10.77;4.53;;;;;;;5.58;100.00;101193.91;5008539;28;20542;-68
2022/11/06 05:44:32;;;;;;;7.60;2.90;;;;;;;5.61;100.00;101192.56;5015632;28;20503;-67
2022/11/06 05:46:59;;;;;;;14.70;3.97;;;;;;;5.65;100.00;101199.06;5011774;28;20479;-68
2022/11/06 05:49:25;;;;;;;9.73;3.97;;;;;;;5.59;100.00;101192.84;5015247;28;21021;-68
2022/11/06 05:51:51;;;;;;;9.70;3.83;;;;;;;5.61;100.00;101200.63;5007378;28;20507;-69
2022/11/06 05:54:19;;;;;;;9.10;2.60;;;;;;;5.65;100.00;101202.56;4995989;28;20449;-71
2022/11/06 05:56:45;;;;;;;10.90;3.60;;;;;;;5.66;100.00;101198.81;5004261;28;20903;-71
2022/11/06 05:59:12;;;;;;;11.33;3.50;;;;;;;5.66;100.00;101201.50;5015412;28;20437;-71
2022/11/06 06:01:39;;;;;;;11.33;3.90;;;;;;;5.73;100.00;101201.31;5013221;28;20492;-71
2022/11/06 06:04:05;;;;;;;8.60;3.67;;;;;;;5.72;100.00;101189.75;5015386;28;20444;-71
2022/11/06 06:06:32;;;;;;;11.03;4.60;;;;;;;5.74;100.00;101192.97;5013094;28;20534;-71
2022/11/06 06:08:58;;;;;;;8.90;4.07;;;;;;;5.73;100.00;101194.06;5015189;28;20455;-71
2022/11/06 06:11:26;;;;;;;12.93;4.50;;;;;;;5.64;100.00;101195.56;5013648;28;20456;-71
2022/11/06 06:13:53;;;;;;;12.03;4.67;;;;;;;5.61;100.00;101193.38;5015144;28;20440;-71
2022/11/06 06:16:19;;;;;;;7.70;3.23;;;;;;;5.66;100.00;101196.13;5013048;28;20491;-71
2022/11/06 06:18:48;;;;;;;9.80;3.73;;;;;;;5.63;100.00;101193.94;5015083;28;20447;-71
2022/11/06 06:21:15;;;;;;;9.03;3.60;;;;;;;5.59;100.00;101200.09;5013106;28;20546;-71
2022/11/06 06:23:41;;;;;;;7.67;3.67;;;;;;;5.53;100.00;101200.03;5014936;28;20440;-71
2022/11/06 06:26:08;;;;;;;13.33;4.77;;;;;;;5.54;100.00;101211.59;5011194;28;20463;-71
2022/11/06 06:28:36;;;;;;;7.90;4.27;;;;;;;5.56;100.00;101206.75;5013022;28;20518;-71
2022/11/06 06:31:03;;;;;;;11.60;4.20;;;;;;;5.60;100.00;101215.13;5014840;28;20436;-71
2022/11/06 06:33:30;;;;;;;9.10;4.13;;;;;;;5.65;100.00;101223.25;5013252;28;20495;-72
2022/11/06 06:35:56;;;;;;;13.30;4.60;;;;;;;5.66;100.00;101214.94;5014757;28;20447;-72
2022/11/06 06:38:24;;;;;;;14.00;4.43;;;;;;;5.66;100.00;101220.31;5012603;28;20542;-71
2022/11/06 06:40:52;;;;;;;8.60;3.70;;;;;;;5.74;100.00;101217.16;5014599;28;20441;-71
2022/11/06 06:43:19;;;;;;;12.67;4.10;;;;;;;5.75;100.00;101220.66;5012798;28;20470;-73
2022/11/06 06:45:47;;;;;;;7.80;3.20;;;;;;;5.85;100.00;101219.97;5014563;28;20472;-71
2022/11/06 06:48:13;;;;;;;12.20;4.20;;;;;;;5.92;100.00;101231.34;5007628;28;20487;-71
2022/11/06 06:50:40;;;;;;;10.30;3.53;;;;;;;6.02;100.00;101226.06;4994860;28;20966;-72
2022/11/06 06:53:06;;;;;;;9.43;3.80;;;;;;;6.11;100.00;101221.03;5000681;28;21013;-73
2022/11/06 06:55:33;;;;;;;16.70;4.23;;;;;;;6.13;100.00;101233.19;5014380;28;20459;-72
2022/11/06 06:58:00;;;;;;;15.50;5.00;;;;;;;6.14;100.00;101215.16;5007012;28;20481;-73
2022/11/06 07:00:27;;;;;;;14.00;4.43;;;;;;;6.19;100.00;101215.19;5001460;28;21114;-70
2022/11/06 07:02:55;;;;;;;7.23;3.33;;;;;;;6.20;100.00;101217.66;5012634;28;20850;-69
2022/11/06 07:05:21;;;;;;;8.70;4.03;;;;;;;6.19;100.00;101223.28;5010814;28;20467;-72
2022/11/06 07:07:48;;;;;;;11.63;4.10;;;;;;;6.20;100.00;101214.16;5012040;28;20514;-72
2022/11/06 07:10:14;;;;;;;10.63;4.00;;;;;;;6.23;100.00;101224.38;5010183;28;20455;-71
2022/11/06 07:12:41;;;;;;;11.20;4.63;;;;;;;6.26;100.00;101222.00;4994445;28;20444;-72
2022/11/06 07:15:08;;;;;;;13.73;3.77;;;;;;;6.26;100.00;101219.31;4998083;28;20790;-72
2022/11/06 07:17:35;;;;;;;9.87;4.63;;;;;;;6.26;100.00;101224.69;5013463;28;20478;-72
2022/11/06 07:20:04;;;;;;;9.37;4.20;;;;;;;6.35;100.00;101229.59;5010344;28;20507;-72
2022/11/06 07:22:30;;;;;;;14.10;4.30;;;;;;;6.41;100.00;101228.56;4995636;28;20517;-71
2022/11/06 07:24:56;;;;;;;11.87;4.60;;;;;;;6.48;100.00;101223.78;5013829;28;20518;-72
2022/11/06 07:27:23;;;;;;;10.20;3.83;;;;;;;6.53;100.00;101231.91;5011943;28;20456;-72
2022/11/06 07:29:49;;;;;;;11.40;4.60;;;;;;;6.57;100.00;101233.81;5013874;28;20459;-71
2022/11/06 07:32:16;;;;;;;12.37;4.40;;;;;;;6.65;100.00;101224.44;4998372;28;20465;-71
2022/11/06 07:34:42;;;;;;;10.30;4.50;;;;;;;6.67;100.00;101233.06;5001806;28;20985;-71
2022/11/06 07:37:10;;;;;;;10.70;4.40;;;;;;;6.73;100.00;101229.34;5013666;28;20472;-72
2022/11/06 07:39:36;;;;;;;10.73;4.27;;;;;;;6.76;100.00;101230.69;5011601;28;20471;-72
2022/11/06 07:42:03;;;;;;;8.53;3.70;;;;;;;6.86;100.00;101221.88;5006424;28;20495;-72
2022/11/06 07:44:29;;;;;;;9.47;4.17;;;;;;;6.94;100.00;101224.06;4993730;28;20448;-71
2022/11/06 07:46:56;;;;;;;8.43;3.43;;;;;;;6.93;100.00;101230.53;4999910;28;20488;-71
2022/11/06 07:49:22;;;;;;;8.47;3.70;;;;;;;6.95;100.00;101226.53;5013622;28;20491;-71
2022/11/06 07:51:49;;;;;;;11.73;4.00;;;;;;;7.00;100.00;101226.56;5008739;28;20456;-71
2022/11/06 07:54:16;;;;;;;11.43;4.23;;;;;;;7.07;100.00;101210.94;4993884;28;20449;-71
2022/11/06 07:56:43;;;;;;;8.10;3.90;;;;;;;7.13;100.00;101219.88;4997805;28;20480;-71
2022/11/06 07:59:09;;;;;;;10.20;4.00;;;;;;;7.18;100.00;101214.53;5013445;28;20444;-71
2022/11/06 08:01:36;;;;;;;14.73;4.63;;;;;;;7.23;100.00;101219.13;5008110;28;20495;-72
2022/11/06 08:04:02;;;;;;;12.77;4.73;;;;;;;7.20;99.64;101215.06;4995197;28;20465;-73
2022/11/06 08:06:38;;;;;;;8.37;3.63;;;;;;;7.25;100.00;101209.69;4995436;28;20492;-69
2022/11/06 08:09:06;;;;;;;8.97;4.23;;;;;;;7.39;100.00;101210.00;5006482;28;20467;-73
2022/11/06 08:11:33;;;;;;;9.53;3.83;;;;;;;7.43;100.00;101202.22;4999547;28;20536;-73
2022/11/06 08:14:00;;;;;;;9.87;3.80;;;;;;;7.47;100.00;101197.91;5013065;28;20444;-72
2022/11/06 08:16:26;;;;;;;15.43;4.97;;;;;;;7.55;100.00;101190.13;4997220;28;20496;-73
2022/11/06 08:18:53;;;;;;;13.10;4.57;;;;;;;7.63;100.00;101199.59;5006645;28;20460;-72
2022/11/06 08:21:19;;;;;;;9.73;3.80;;;;;;;7.76;99.70;101196.38;5011527;28;20464;-73
2022/11/06 08:23:46;;;;;;;10.40;4.17;;;;;;;7.89;99.52;101191.53;4997427;28;20472;-69
2022/11/06 08:26:12;;;;;;;10.97;4.33;;;;;;;7.93;98.86;101198.03;5004704;28;20470;-68
2022/11/06 08:28:40;;;;;;;9.43;3.60;;;;;;;8.01;98.31;101192.06;5013163;28;20455;-68
2022/11/06 08:31:07;;;;;;;9.73;3.40;;;;;;;8.09;97.52;101188.84;5009911;28;20809;-67
2022/11/06 08:33:35;;;;;;;11.63;4.27;;;;;;;8.17;96.67;101191.00;5005098;28;20457;-68
2022/11/06 08:36:06;;;;;;;11.70;4.20;;;;;;;8.29;95.60;101191.56;4993402;28;20449;-69
2022/11/06 08:38:32;;;;;;;7.70;3.70;;;;;;;8.35;96.66;101197.75;5001750;28;20836;-68
2022/11/06 08:41:03;;;;;;;15.10;5.00;;;;;;;8.35;97.40;101176.97;5013044;28;20506;-69
2022/11/06 08:43:30;;;;;;;12.90;3.43;;;;;;;8.45;95.77;101183.47;5008914;28;20476;-69
2022/11/06 08:45:59;;;;;;;8.53;3.50;;;;;;;8.51;95.78;101180.50;4997547;28;20473;-70
2022/11/06 08:48:25;;;;;;;8.97;3.27;;;;;;;8.58;94.32;101191.81;5004027;28;21026;-69
2022/11/06 08:50:52;;;;;;;9.77;4.37;;;;;;;8.64;94.85;101184.53;4996207;28;20966;-71
2022/11/06 08:53:18;;;;;;;13.30;3.83;;;;;;;8.67;95.51;101178.56;4998136;28;20457;-69
2022/11/06 08:55:44;;;;;;;10.97;4.30;;;;;;;8.72;93.73;101175.03;5005439;28;20510;-69
2022/11/06 08:58:12;;;;;;;25.37;8.40;;;;;;;8.78;94.34;101179.38;5001547;28;20484;-70
2022/11/06 09:00:39;;;;;;;24.10;7.90;;;;;;;8.82;94.36;101177.75;4997822;28;20461;-70
2022/11/06 09:03:14;;;;;;;10.30;4.23;;;;;;;8.88;93.35;101178.53;5007456;28;20492;-71
2022/11/06 09:05:41;;;;;;;6.90;3.47;;;;;;;8.93;93.33;101175.81;5006851;28;20459;-70
2022/11/06 09:08:08;;;;;;;8.93;4.10;;;;;;;8.95;92.95;101173.66;4996921;28;21055;-72
2022/11/06 09:10:36;;;;;;;8.00;3.83;;;;;;;9.00;92.18;101173.63;5013176;28;20460;-69
2022/11/06 09:13:03;;;;;;;12.60;3.77;;;;;;;9.04;92.01;101175.50;5010776;28;21017;-70
2022/11/06 09:15:29;;;;;;;7.53;3.20;;;;;;;9.08;91.83;101181.19;5016115;28;20889;-70
2022/11/06 09:17:56;;;;;;;9.40;3.50;;;;;;;9.10;91.48;101173.59;5000555;28;21034;-69
2022/11/06 09:20:25;;;;;;;10.67;3.90;;;;;;;9.14;91.33;101180.06;4999301;28;20453;-69
2022/11/06 09:22:52;;;;;;;12.53;4.10;;;;;;;9.20;90.85;101184.34;5007701;28;20487;-70
2022/11/06 09:25:20;;;;;;;7.93;4.00;;;;;;;9.26;91.26;101177.84;5016044;28;20440;-69
2022/11/06 09:27:48;;;;;;;12.07;4.73;;;;;;;9.33;90.91;101180.25;5013236;28;20472;-69
2022/11/06 09:30:18;;;;;;;9.57;4.03;;;;;;;9.36;89.79;101182.41;5011640;28;20892;-69
2022/11/06 09:32:49;;;;;;;7.47;3.80;;;;;;;9.41;90.13;101192.38;5016590;28;20448;-69
2022/11/06 09:35:16;;;;;;;9.97;4.10;;;;;;;9.44;90.00;101189.13;5014525;28;20467;-69
2022/11/06 09:37:44;;;;;;;13.70;2.90;;;;;;;9.50;89.86;101194.22;5015856;28;20471;-69
2022/11/06 09:40:18;;;;;;;8.30;3.43;;;;;;;9.58;89.84;101195.53;5009626;28;20558;-69
2022/11/06 09:42:53;;;;;;;8.47;3.43;;;;;;;9.64;89.26;101189.00;4996256;28;20469;-70
2022/11/06 09:45:23;;;;;;;8.30;3.30;;;;;;;9.66;89.03;101184.13;4996247;28;21042;-69
2022/11/06 09:47:54;;;;;;;15.00;4.33;;;;;;;9.70;88.32;101189.78;4996309;28;20465;-70
2022/11/06 09:50:25;;;;;;;8.40;3.33;;;;;;;9.77;88.22;101182.97;5007031;28;20468;-69
2022/11/06 09:52:57;;;;;;;9.77;3.73;;;;;;;9.84;88.25;101175.34;4996186;28;20775;-70
2022/11/06 09:55:29;;;;;;;9.70;4.80;;;;;;;9.86;86.80;101183.97;5005792;28;20507;-70
2022/11/06 09:57:59;;;;;;;9.30;4.37;;;;;;;9.92;86.92;101178.56;4995504;28;20990;-71
2022/11/06 10:00:26;;;;;;;8.20;3.43;;;;;;;9.93;87.65;101178.25;5016613;28;20444;-70
2022/11/06 10:02:55;;;;;;;11.80;3.90;;;;;;;9.97;86.66;101181.22;5009230;28;20492;-70
2022/11/06 10:05:25;;;;;;;8.90;4.67;;;;;;;10.03;86.49;101178.19;5015385;28;20863;-70
2022/11/06 10:07:56;;;;;;;15.27;4.37;;;;;;;10.13;86.34;101177.28;5012818;28;20487;-70
2022/11/06 10:10:28;;;;;;;8.70;3.70;;;;;;;10.17;86.30;101181.03;5014127;28;20575;-70
2022/11/06 10:13:11;;;;;;;9.40;3.50;;;;;;;10.22;85.93;101164.75;5015245;28;20432;-69
2022/11/06 10:15:45;;;;;;;12.00;3.40;;;;;;;10.29;84.88;101169.88;5003472;28;20465;-70
2022/11/06 10:18:21;;;;;;;8.40;3.53;;;;;;;10.33;84.69;101163.63;5008068;28;21010;-70
2022/11/06 10:20:51;;;;;;;10.00;3.57;;;;;;;10.38;83.70;101161.94;5005780;28;20457;-70
2022/11/06 10:23:32;;;;;;;9.70;4.00;;;;;;;10.47;83.92;101157.53;4995376;28;20523;-69
2022/11/06 10:26:09;;;;;;;8.27;2.80;;;;;;;10.50;84.37;101154.25;5008035;28;20867;-69
2022/11/06 10:28:59;;;;;;;7.37;2.80;;;;;;;10.63;83.82;101153.59;5002512;28;20456;-70
2022/11/06 10:31:36;;;;;;;5.87;2.60;;;;;;;10.72;83.47;101134.78;5005111;28;20971;-73
2022/11/06 10:34:08;;;;;;;6.80;2.40;;;;;;;10.82;82.98;101140.88;5014684;28;20903;-70
2022/11/06 10:36:40;;;;;;;12.70;3.50;;;;;;;10.96;82.00;101127.44;5013477;28;20510;-70
2022/11/06 10:39:15;;;;;;;6.70;3.00;;;;;;;11.11;82.59;101132.69;5004107;28;21018;-71
2022/11/06 10:41:46;;;;;;;7.30;3.27;;;;;;;11.23;81.19;101128.72;4998257;28;20467;-71
2022/11/06 10:44:21;;;;;;;20.30;4.33;;;;;;;11.32;80.58;101127.78;5005179;28;20480;-70
2022/11/06 10:46:52;;;;;;;7.53;2.90;;;;;;;11.35;79.40;101124.50;5014419;28;20475;-70
2022/11/06 10:49:30;;;;;;;12.37;4.90;;;;;;;11.40;78.90;101111.97;5012051;28;21019;-70
2022/11/06 10:52:17;;;;;;;11.47;4.27;;;;;;;11.44;78.36;101108.38;5001183;28;20457;-70
2022/11/06 10:55:01;;;;;;;15.40;5.40;;;;;;;11.58;77.90;101103.81;4995679;28;21037;-70
2022/11/06 10:57:37;;;;;;;16.97;5.50;;;;;;;11.61;77.93;101103.22;4999726;28;20924;-70
2022/11/06 11:00:04;;;;;;;10.90;4.33;;;;;;;11.88;78.08;101106.38;4995372;28;20802;-70
2022/11/06 11:02:35;;;;;;;8.83;3.20;;;;;;;12.58;76.53;101092.63;5032338;28;20490;-70
2022/11/06 11:05:01;;;;;;;8.43;3.07;;;;;;;13.36;70.58;101107.84;5008782;28;21010;-72
2022/11/06 11:07:34;;;;;;;8.70;3.30;;;;;;;13.94;67.21;101108.13;4996451;28;20488;-71
2022/11/06 11:10:26;;;;;;;7.40;2.87;;;;;;;14.32;64.35;101097.59;5011983;28;20985;-72
2022/11/06 11:12:54;;;;;;;8.23;3.00;;;;;;;14.72;64.20;101103.88;5004233;28;20455;-71
2022/11/06 11:15:22;;;;;;;8.87;2.80;;;;;;;15.53;60.98;101097.09;5005485;28;20547;-70
2022/11/06 11:18:07;;;;;;;6.33;2.77;;;;;;;15.73;59.01;101110.13;5011096;28;20483;-71
2022/11/06 11:20:35;;;;;;;11.07;3.40;;;;;;;15.84;59.47;101099.66;5011850;28;20467;-70
2022/11/06 11:23:06;;;;;;;7.10;2.50;;;;;;;16.45;58.75;101102.25;5005727;28;20947;-71
2022/11/06 11:25:34;;;;;;;6.30;2.50;;;;;;;17.22;54.55;101102.97;5006089;28;20555;-71
2022/11/06 11:28:01;;;;;;;7.27;2.73;;;;;;;17.13;53.63;101100.28;4993797;28;20485;-70
2022/11/06 11:30:28;;;;;;;6.53;2.27;;;;;;;17.72;55.09;101105.63;4997787;28;20489;-71
2022/11/06 11:32:56;;;;;;;6.90;2.33;;;;;;;18.30;52.81;101103.78;5004735;28;20453;-68
2022/11/06 11:35:27;;;;;;;5.97;2.17;;;;;;;17.83;52.67;101098.63;5007104;28;20448;-69
2022/11/06 11:38:06;;;;;;;6.00;2.33;;;;;;;18.10;53.29;101093.66;5013893;28;20522;-70
2022/11/06 11:40:37;;;;;;;5.87;1.90;;;;;;;18.59;51.18;101101.94;5013751;28;20445;-70
2022/11/06 11:43:21;;;;;;;4.87;1.87;;;;;;;18.30;51.44;101086.50;5013317;28;21076;-69
2022/11/06 11:46:02;;;;;;;5.60;1.80;;;;;;;18.57;50.39;101093.28;5013711;28;20433;-70
2022/11/06 11:48:41;;;;;;;5.00;1.77;;;;;;;18.75;50.54;101085.66;5010097;28;20848;-70